Aviation Digital Data Service (ADDS)

Output produced by METARs form (1937 UTC 25 March 2017)
found at http://www.aviationweather.gov/adds/metars/
 
LZKZ 251930Z 04006KT CAVOK 08/M02 Q1018
TAF LZKZ 251700Z 2518/2618 10005KT CAVOK 
     PROB40 
     TEMPO 2522/2605 6000 -RA SCT033 BKN060 
     BECMG 2606/2608 01012KT 9999 FEW040 SCT080 
     TEMPO 2609/2614 01015G25KT
       
LZIB 251930Z 29006KT CAVOK 09/M01 Q1021
TAF LZIB 251700Z 2518/2618 34008KT CAVOK 
     BECMG 2607/2609 36012KT
       
TAF LZMC 251930Z 2521/2606 VRB03KT CAVOK 
     TEMPO 2521/2606 7000 NSC 
     PROB40 
     TEMPO 2602/2606 01012KT
       
LZPP 251930Z 32006KT CAVOK 06/M01 Q1020
TAF LZPP 251700Z 2518/2603 01008KT CAVOK
       
LZSL 251930Z 34005KT 300V020 CAVOK 08/M02 Q1019
TAF LZSL 251700Z 2518/2603 35006KT CAVOK
       
LZTT 251930Z 24015KT CAVOK 05/M07 Q1017
TAF LZTT 251700Z 2518/2618 27012KT CAVOK 
     BECMG 2522/2600 9999 SCT033 BKN060 
     PROB40 
     TEMPO 2600/2608 5000 -SHRA SCT020 BKN033 
     BECMG 2608/2610 04010KT 9999 SCT045
       
LZZI 251930Z 04001KT 9999 BKN061 04/01 Q1020
TAF LZZI 251700Z 2518/2603 33005KT CAVOK